sensor_id;sensor_type;location;lat;lon;timestamp;pressure;altitude;pressure_sealevel;temperature;humidity
42761;BME280;31672;47.638;19.026;2022-12-07T00:03:30;99999.84;;;1.51;100.00
42761;BME280;31672;47.638;19.026;2022-12-07T00:08:34;99995.31;;;1.53;100.00
42761;BME280;31672;47.638;19.026;2022-12-07T00:13:38;99984.13;;;1.51;100.00
42761;BME280;31672;47.638;19.026;2022-12-07T00:18:42;99978.41;;;1.46;100.00
42761;BME280;31672;47.638;19.026;2022-12-07T00:23:47;99971.25;;;1.48;100.00
42761;BME280;31672;47.638;19.026;2022-12-07T00:28:54;99975.78;;;1.46;100.00
42761;BME280;31672;47.638;19.026;2022-12-07T00:33:58;99970.25;;;1.38;100.00
42761;BME280;31672;47.638;19.026;2022-12-07T00:39:01;99965.94;;;1.25;100.00
42761;BME280;31672;47.638;19.026;2022-12-07T00:44:05;99969.72;;;1.10;100.00
42761;BME280;31672;47.638;19.026;2022-12-07T00:49:07;99973.34;;;0.96;100.00
42761;BME280;31672;47.638;19.026;2022-12-07T00:54:10;99967.94;;;0.87;100.00
42761;BME280;31672;47.638;19.026;2022-12-07T00:59:14;99980.75;;;0.78;100.00
42761;BME280;31672;47.638;19.026;2022-12-07T01:04:17;99968.13;;;0.72;100.00
42761;BME280;31672;47.638;19.026;2022-12-07T01:09:20;99968.78;;;0.63;100.00
42761;BME280;31672;47.638;19.026;2022-12-07T01:14:23;99967.22;;;0.61;100.00
42761;BME280;31672;47.638;19.026;2022-12-07T01:19:26;99959.47;;;0.59;100.00
42761;BME280;31672;47.638;19.026;2022-12-07T01:24:29;99957.28;;;0.53;100.00
42761;BME280;31672;47.638;19.026;2022-12-07T01:29:32;99949.06;;;0.46;100.00
42761;BME280;31672;47.638;19.026;2022-12-07T01:34:35;99950.31;;;0.41;100.00
42761;BME280;31672;47.638;19.026;2022-12-07T01:39:38;99955.13;;;0.47;100.00
42761;BME280;31672;47.638;19.026;2022-12-07T01:50:22;99955.13;;;0.71;100.00
42761;BME280;31672;47.638;19.026;2022-12-07T01:55:27;99950.41;;;1.00;100.00
42761;BME280;31672;47.638;19.026;2022-12-07T02:00:30;99945.75;;;1.27;100.00
42761;BME280;31672;47.638;19.026;2022-12-07T02:05:35;99941.50;;;1.49;100.00
42761;BME280;31672;47.638;19.026;2022-12-07T02:10:40;99945.31;;;1.56;100.00
42761;BME280;31672;47.638;19.026;2022-12-07T02:26:55;99935.31;;;1.50;100.00
42761;BME280;31672;47.638;19.026;2022-12-07T02:43:24;99927.75;;;1.80;100.00
42761;BME280;31672;47.638;19.026;2022-12-07T02:48:28;99929.16;;;1.96;100.00
42761;BME280;31672;47.638;19.026;2022-12-07T02:53:37;99926.75;;;2.04;100.00
42761;BME280;31672;47.638;19.026;2022-12-07T03:09:51;99933.22;;;2.22;100.00
42761;BME280;31672;47.638;19.026;2022-12-07T03:20:40;99919.00;;;2.25;100.00
42761;BME280;31672;47.638;19.026;2022-12-07T03:25:52;99923.56;;;2.23;100.00
42761;BME280;31672;47.638;19.026;2022-12-07T03:31:11;99935.84;;;2.22;100.00
42761;BME280;31672;47.638;19.026;2022-12-07T03:36:32;99935.94;;;2.21;100.00
42761;BME280;31672;47.638;19.026;2022-12-07T03:41:39;99939.63;;;2.18;100.00
42761;BME280;31672;47.638;19.026;2022-12-07T03:53:00;99943.44;;;2.14;100.00
42761;BME280;31672;47.638;19.026;2022-12-07T03:58:15;99935.00;;;2.10;100.00
42761;BME280;31672;47.638;19.026;2022-12-07T04:03:19;99930.00;;;2.07;100.00
42761;BME280;31672;47.638;19.026;2022-12-07T04:08:22;99942.75;;;2.01;100.00
42761;BME280;31672;47.638;19.026;2022-12-07T04:13:25;99933.69;;;1.94;100.00
42761;BME280;31672;47.638;19.026;2022-12-07T04:18:28;99936.78;;;1.87;100.00
42761;BME280;31672;47.638;19.026;2022-12-07T04:23:31;99942.16;;;1.86;100.00
42761;BME280;31672;47.638;19.026;2022-12-07T04:28:34;99929.97;;;1.85;100.00
42761;BME280;31672;47.638;19.026;2022-12-07T04:33:37;99936.91;;;1.86;100.00
42761;BME280;31672;47.638;19.026;2022-12-07T04:38:40;99931.69;;;1.86;100.00
42761;BME280;31672;47.638;19.026;2022-12-07T04:43:43;99928.94;;;1.87;100.00
42761;BME280;31672;47.638;19.026;2022-12-07T04:48:46;99915.97;;;1.86;100.00
42761;BME280;31672;47.638;19.026;2022-12-07T04:53:49;99919.41;;;1.86;100.00
42761;BME280;31672;47.638;19.026;2022-12-07T04:58:54;99917.84;;;1.84;100.00
42761;BME280;31672;47.638;19.026;2022-12-07T05:03:57;99914.66;;;1.80;100.00
42761;BME280;31672;47.638;19.026;2022-12-07T05:09:02;99918.31;;;1.78;100.00
42761;BME280;31672;47.638;19.026;2022-12-07T05:14:18;99908.09;;;1.75;100.00
42761;BME280;31672;47.638;19.026;2022-12-07T05:19:21;99923.06;;;1.73;100.00
42761;BME280;31672;47.638;19.026;2022-12-07T05:24:24;99923.19;;;1.71;100.00
42761;BME280;31672;47.638;19.026;2022-12-07T05:29:27;99918.09;;;1.70;100.00
42761;BME280;31672;47.638;19.026;2022-12-07T05:34:30;99917.97;;;1.71;100.00
42761;BME280;31672;47.638;19.026;2022-12-07T05:39:33;99916.03;;;1.73;100.00
42761;BME280;31672;47.638;19.026;2022-12-07T05:44:36;99922.59;;;1.79;100.00
42761;BME280;31672;47.638;19.026;2022-12-07T05:49:39;99922.25;;;1.83;100.00
42761;BME280;31672;47.638;19.026;2022-12-07T05:54:42;99920.94;;;1.89;100.00
42761;BME280;31672;47.638;19.026;2022-12-07T05:59:45;99925.72;;;1.95;100.00
42761;BME280;31672;47.638;19.026;2022-12-07T06:04:48;99930.72;;;1.98;100.00
42761;BME280;31672;47.638;19.026;2022-12-07T06:09:52;99933.78;;;2.03;100.00
42761;BME280;31672;47.638;19.026;2022-12-07T06:14:55;99931.06;;;2.05;100.00
42761;BME280;31672;47.638;19.026;2022-12-07T06:19:58;99923.91;;;2.07;100.00
42761;BME280;31672;47.638;19.026;2022-12-07T06:25:02;99935.00;;;2.10;100.00
42761;BME280;31672;47.638;19.026;2022-12-07T06:30:10;99933.91;;;2.13;100.00
42761;BME280;31672;47.638;19.026;2022-12-07T06:35:13;99938.94;;;2.16;100.00
42761;BME280;31672;47.638;19.026;2022-12-07T06:40:16;99937.97;;;2.17;100.00
42761;BME280;31672;47.638;19.026;2022-12-07T06:45:19;99943.94;;;2.19;100.00
42761;BME280;31672;47.638;19.026;2022-12-07T06:50:22;99942.84;;;2.22;100.00
42761;BME280;31672;47.638;19.026;2022-12-07T06:55:25;99939.16;;;2.24;100.00
42761;BME280;31672;47.638;19.026;2022-12-07T07:00:29;99935.34;;;2.28;100.00
42761;BME280;31672;47.638;19.026;2022-12-07T07:05:32;99932.25;;;2.34;100.00
42761;BME280;31672;47.638;19.026;2022-12-07T07:10:35;99928.41;;;2.38;100.00
42761;BME280;31672;47.638;19.026;2022-12-07T07:15:39;99933.28;;;2.43;100.00
42761;BME280;31672;47.638;19.026;2022-12-07T07:20:42;99938.16;;;2.48;100.00
42761;BME280;31672;47.638;19.026;2022-12-07T07:25:45;99937.91;;;2.51;100.00
42761;BME280;31672;47.638;19.026;2022-12-07T07:30:49;99934.91;;;2.55;100.00
42761;BME280;31672;47.638;19.026;2022-12-07T07:35:53;99941.47;;;2.61;100.00
42761;BME280;31672;47.638;19.026;2022-12-07T07:40:56;99935.72;;;2.67;100.00
42761;BME280;31672;47.638;19.026;2022-12-07T07:45:59;99936.91;;;2.74;100.00
42761;BME280;31672;47.638;19.026;2022-12-07T07:51:06;99942.38;;;2.82;100.00
42761;BME280;31672;47.638;19.026;2022-12-07T07:56:09;99947.34;;;2.85;100.00
42761;BME280;31672;47.638;19.026;2022-12-07T08:01:12;99949.63;;;2.90;100.00
42761;BME280;31672;47.638;19.026;2022-12-07T08:06:16;99945.53;;;2.97;100.00
42761;BME280;31672;47.638;19.026;2022-12-07T08:11:19;99946.94;;;3.01;100.00
42761;BME280;31672;47.638;19.026;2022-12-07T08:16:22;99948.81;;;3.10;100.00
42761;BME280;31672;47.638;19.026;2022-12-07T08:21:25;99950.22;;;3.14;100.00
42761;BME280;31672;47.638;19.026;2022-12-07T08:26:28;99958.44;;;3.21;100.00
42761;BME280;31672;47.638;19.026;2022-12-07T08:31:31;99960.56;;;3.27;100.00
42761;BME280;31672;47.638;19.026;2022-12-07T08:36:36;99977.13;;;3.28;100.00
42761;BME280;31672;47.638;19.026;2022-12-07T08:41:39;99976.44;;;3.26;100.00
42761;BME280;31672;47.638;19.026;2022-12-07T08:46:51;99980.72;;;3.27;100.00
42761;BME280;31672;47.638;19.026;2022-12-07T08:51:56;99973.31;;;3.32;100.00
42761;BME280;31672;47.638;19.026;2022-12-07T08:56:59;99977.69;;;3.42;100.00
42761;BME280;31672;47.638;19.026;2022-12-07T09:02:04;99978.19;;;3.57;100.00
42761;BME280;31672;47.638;19.026;2022-12-07T09:07:07;99974.66;;;3.68;100.00
42761;BME280;31672;47.638;19.026;2022-12-07T09:12:11;99979.84;;;3.79;100.00
42761;BME280;31672;47.638;19.026;2022-12-07T09:17:14;99966.03;;;3.87;100.00
42761;BME280;31672;47.638;19.026;2022-12-07T09:22:16;99958.03;;;3.88;100.00
42761;BME280;31672;47.638;19.026;2022-12-07T09:27:19;99950.84;;;3.90;100.00
42761;BME280;31672;47.638;19.026;2022-12-07T09:32:23;99954.22;;;4.02;100.00
42761;BME280;31672;47.638;19.026;2022-12-07T09:37:26;99952.84;;;4.08;100.00
42761;BME280;31672;47.638;19.026;2022-12-07T09:42:41;99936.25;;;4.07;100.00
42761;BME280;31672;47.638;19.026;2022-12-07T09:47:48;99934.63;;;4.16;100.00
42761;BME280;31672;47.638;19.026;2022-12-07T09:52:51;99942.22;;;4.19;100.00
42761;BME280;31672;47.638;19.026;2022-12-07T09:57:56;99930.06;;;4.18;100.00
42761;BME280;31672;47.638;19.026;2022-12-07T10:03:02;99912.03;;;4.13;100.00
42761;BME280;31672;47.638;19.026;2022-12-07T10:08:10;99914.13;;;4.10;99.93
42761;BME280;31672;47.638;19.026;2022-12-07T10:13:21;99916.91;;;4.18;99.78
42761;BME280;31672;47.638;19.026;2022-12-07T10:18:40;99921.53;;;4.35;98.69
42761;BME280;31672;47.638;19.026;2022-12-07T10:24:22;99910.19;;;4.44;95.98
42761;BME280;31672;47.638;19.026;2022-12-07T10:29:36;99903.97;;;4.45;95.73
42761;BME280;31672;47.638;19.026;2022-12-07T10:34:39;99884.88;;;4.53;95.77
42761;BME280;31672;47.638;19.026;2022-12-07T10:39:55;99869.47;;;4.68;95.97
42761;BME280;31672;47.638;19.026;2022-12-07T10:45:09;99885.97;;;5.28;95.31
42761;BME280;31672;47.638;19.026;2022-12-07T11:07:06;99875.22;;;5.58;87.39
42761;BME280;31672;47.638;19.026;2022-12-07T11:17:32;99886.22;;;5.25;83.58
42761;BME280;31672;47.638;19.026;2022-12-07T11:22:47;99883.22;;;5.10;82.61
42761;BME280;31672;47.638;19.026;2022-12-07T11:39:35;99888.63;;;4.89;83.61
42761;BME280;31672;47.638;19.026;2022-12-07T11:45:27;99886.00;;;4.89;84.66
42761;BME280;31672;47.638;19.026;2022-12-07T11:56:11;99870.91;;;4.62;85.68
42761;BME280;31672;47.638;19.026;2022-12-07T12:06:26;99858.81;;;4.40;87.30
42761;BME280;31672;47.638;19.026;2022-12-07T12:17:38;99840.09;;;4.43;88.50
42761;BME280;31672;47.638;19.026;2022-12-07T12:23:00;99835.69;;;4.53;89.26
42761;BME280;31672;47.638;19.026;2022-12-07T12:28:05;99831.41;;;4.62;88.76
42761;BME280;31672;47.638;19.026;2022-12-07T12:33:29;99828.09;;;4.70;87.81
42761;BME280;31672;47.638;19.026;2022-12-07T12:38:34;99823.34;;;4.83;85.69
42761;BME280;31672;47.638;19.026;2022-12-07T12:43:52;99830.28;;;4.84;84.87
42761;BME280;31672;47.638;19.026;2022-12-07T12:54:32;99833.19;;;4.91;84.83
42761;BME280;31672;47.638;19.026;2022-12-07T13:10:00;99837.16;;;5.14;84.96
42761;BME280;31672;47.638;19.026;2022-12-07T13:20:51;99848.25;;;5.08;84.73
42761;BME280;31672;47.638;19.026;2022-12-07T13:31:32;99850.78;;;4.71;78.18
42761;BME280;31672;47.638;19.026;2022-12-07T13:36:39;99841.53;;;4.57;77.31
42761;BME280;31672;47.638;19.026;2022-12-07T13:42:06;99863.78;;;4.43;77.92
42761;BME280;31672;47.638;19.026;2022-12-07T13:47:41;99866.41;;;4.24;78.94
42761;BME280;31672;47.638;19.026;2022-12-07T13:52:45;99873.56;;;4.12;79.44
42761;BME280;31672;47.638;19.026;2022-12-07T13:57:52;99877.84;;;4.03;80.22
42761;BME280;31672;47.638;19.026;2022-12-07T14:08:22;99869.19;;;3.82;81.60
42761;BME280;31672;47.638;19.026;2022-12-07T14:13:38;99874.09;;;3.66;82.68
42761;BME280;31672;47.638;19.026;2022-12-07T14:18:43;99873.75;;;3.49;83.49
42761;BME280;31672;47.638;19.026;2022-12-07T14:24:22;99878.63;;;3.33;84.43
42761;BME280;31672;47.638;19.026;2022-12-07T14:34:28;99874.00;;;3.05;85.75
42761;BME280;31672;47.638;19.026;2022-12-07T14:39:30;99867.75;;;2.96;85.87
42761;BME280;31672;47.638;19.026;2022-12-07T14:44:33;99880.31;;;2.81;86.16
42761;BME280;31672;47.638;19.026;2022-12-07T14:49:40;99870.84;;;2.69;85.82
42761;BME280;31672;47.638;19.026;2022-12-07T14:54:43;99884.94;;;2.57;86.00
42761;BME280;31672;47.638;19.026;2022-12-07T14:59:46;99897.41;;;2.44;86.36
42761;BME280;31672;47.638;19.026;2022-12-07T15:04:49;99898.84;;;2.36;87.18
42761;BME280;31672;47.638;19.026;2022-12-07T15:09:53;99895.28;;;2.26;87.79
42761;BME280;31672;47.638;19.026;2022-12-07T15:14:56;99903.91;;;2.17;88.11
42761;BME280;31672;47.638;19.026;2022-12-07T15:20:02;99903.78;;;2.07;88.75
42761;BME280;31672;47.638;19.026;2022-12-07T15:25:08;99912.84;;;1.92;88.67
42761;BME280;31672;47.638;19.026;2022-12-07T15:30:11;99909.16;;;1.72;89.23
42761;BME280;31672;47.638;19.026;2022-12-07T15:35:15;99919.38;;;1.53;90.04
42761;BME280;31672;47.638;19.026;2022-12-07T15:40:18;99921.84;;;1.32;90.63
42761;BME280;31672;47.638;19.026;2022-12-07T15:45:21;99926.75;;;1.13;90.83
42761;BME280;31672;47.638;19.026;2022-12-07T15:50:24;99919.56;;;0.92;91.33
42761;BME280;31672;47.638;19.026;2022-12-07T15:55:27;99933.06;;;0.75;92.35
42761;BME280;31672;47.638;19.026;2022-12-07T16:00:29;99924.75;;;0.57;92.62
42761;BME280;31672;47.638;19.026;2022-12-07T16:05:32;99925.84;;;0.42;93.41
42761;BME280;31672;47.638;19.026;2022-12-07T16:10:36;99935.75;;;0.25;93.55
42761;BME280;31672;47.638;19.026;2022-12-07T16:15:42;99930.88;;;0.08;94.21
42761;BME280;31672;47.638;19.026;2022-12-07T16:20:48;99932.69;;;-0.05;94.94
42761;BME280;31672;47.638;19.026;2022-12-07T16:25:52;99936.84;;;-0.15;95.38
42761;BME280;31672;47.638;19.026;2022-12-07T16:31:11;99932.25;;;-0.24;96.31
42761;BME280;31672;47.638;19.026;2022-12-07T16:36:16;99939.69;;;-0.31;96.48
42761;BME280;31672;47.638;19.026;2022-12-07T16:41:39;99939.78;;;-0.45;96.82
42761;BME280;31672;47.638;19.026;2022-12-07T16:46:42;99939.38;;;-0.52;97.58
42761;BME280;31672;47.638;19.026;2022-12-07T16:51:50;99942.09;;;-0.53;97.84
42761;BME280;31672;47.638;19.026;2022-12-07T16:57:13;99948.56;;;-0.59;98.42
42761;BME280;31672;47.638;19.026;2022-12-07T17:02:23;99955.22;;;-0.68;98.20
42761;BME280;31672;47.638;19.026;2022-12-07T17:07:26;99958.34;;;-0.75;98.66
42761;BME280;31672;47.638;19.026;2022-12-07T17:12:29;99956.31;;;-0.85;99.25
42761;BME280;31672;47.638;19.026;2022-12-07T17:17:32;99953.09;;;-0.88;99.65
42761;BME280;31672;47.638;19.026;2022-12-07T17:22:35;99945.47;;;-0.91;100.00
42761;BME280;31672;47.638;19.026;2022-12-07T17:27:38;99943.91;;;-0.94;100.00
42761;BME280;31672;47.638;19.026;2022-12-07T17:32:41;99954.75;;;-1.00;100.00
42761;BME280;31672;47.638;19.026;2022-12-07T17:37:44;99967.97;;;-1.03;100.00
42761;BME280;31672;47.638;19.026;2022-12-07T17:42:52;99964.13;;;-0.97;100.00
42761;BME280;31672;47.638;19.026;2022-12-07T17:47:55;99972.91;;;-0.86;100.00
42761;BME280;31672;47.638;19.026;2022-12-07T17:52:58;99971.78;;;-0.82;100.00
42761;BME280;31672;47.638;19.026;2022-12-07T17:58:13;99975.00;;;-0.91;100.00
42761;BME280;31672;47.638;19.026;2022-12-07T18:03:20;99974.97;;;-1.03;100.00
42761;BME280;31672;47.638;19.026;2022-12-07T18:08:23;99968.47;;;-1.11;100.00
42761;BME280;31672;47.638;19.026;2022-12-07T18:13:26;99981.63;;;-1.12;100.00
42761;BME280;31672;47.638;19.026;2022-12-07T18:18:39;99982.63;;;-1.15;100.00
42761;BME280;31672;47.638;19.026;2022-12-07T18:23:44;99976.16;;;-1.22;100.00
42761;BME280;31672;47.638;19.026;2022-12-07T18:28:48;99979.91;;;-1.26;100.00
42761;BME280;31672;47.638;19.026;2022-12-07T18:33:51;99986.56;;;-1.22;100.00
42761;BME280;31672;47.638;19.026;2022-12-07T18:38:57;99985.97;;;-1.25;100.00
42761;BME280;31672;47.638;19.026;2022-12-07T18:44:03;99984.03;;;-1.36;100.00
42761;BME280;31672;47.638;19.026;2022-12-07T18:49:10;99984.59;;;-1.45;100.00
42761;BME280;31672;47.638;19.026;2022-12-07T18:54:14;99989.34;;;-1.52;100.00
42761;BME280;31672;47.638;19.026;2022-12-07T18:59:16;100000.16;;;-1.58;100.00
42761;BME280;31672;47.638;19.026;2022-12-07T19:04:38;100003.44;;;-1.69;100.00
42761;BME280;31672;47.638;19.026;2022-12-07T19:09:41;99996.47;;;-1.82;100.00
42761;BME280;31672;47.638;19.026;2022-12-07T19:14:44;100011.53;;;-1.88;100.00
42761;BME280;31672;47.638;19.026;2022-12-07T19:19:47;100011.38;;;-1.84;100.00
42761;BME280;31672;47.638;19.026;2022-12-07T19:24:53;100013.03;;;-1.83;100.00
42761;BME280;31672;47.638;19.026;2022-12-07T19:29:57;100013.03;;;-1.83;100.00
42761;BME280;31672;47.638;19.026;2022-12-07T19:35:00;100001.69;;;-1.82;100.00
42761;BME280;31672;47.638;19.026;2022-12-07T19:40:06;99993.88;;;-1.82;100.00
42761;BME280;31672;47.638;19.026;2022-12-07T19:45:09;100004.28;;;-1.82;100.00
42761;BME280;31672;47.638;19.026;2022-12-07T19:50:12;99996.47;;;-1.82;100.00
42761;BME280;31672;47.638;19.026;2022-12-07T19:55:15;99997.31;;;-1.82;100.00
42761;BME280;31672;47.638;19.026;2022-12-07T20:00:19;100003.34;;;-1.81;100.00
42761;BME280;31672;47.638;19.026;2022-12-07T20:05:22;100001.50;;;-1.79;100.00
42761;BME280;31672;47.638;19.026;2022-12-07T20:10:26;100010.22;;;-1.80;100.00
42761;BME280;31672;47.638;19.026;2022-12-07T20:15:29;100006.88;;;-1.82;100.00
42761;BME280;31672;47.638;19.026;2022-12-07T20:20:32;100007.25;;;-1.89;100.00
42761;BME280;31672;47.638;19.026;2022-12-07T20:25:36;100014.34;;;-1.91;100.00
42761;BME280;31672;47.638;19.026;2022-12-07T20:30:50;100008.47;;;-1.94;100.00
42761;BME280;31672;47.638;19.026;2022-12-07T20:36:03;100020.38;;;-1.90;100.00
42761;BME280;31672;47.638;19.026;2022-12-07T20:41:09;100025.59;;;-1.90;100.00
42761;BME280;31672;47.638;19.026;2022-12-07T20:46:31;100024.09;;;-1.94;100.00
42761;BME280;31672;47.638;19.026;2022-12-07T20:51:34;100032.00;;;-1.96;100.00
42761;BME280;31672;47.638;19.026;2022-12-07T20:56:36;100038.88;;;-1.95;100.00
42761;BME280;31672;47.638;19.026;2022-12-07T21:01:40;100031.19;;;-1.96;100.00
42761;BME280;31672;47.638;19.026;2022-12-07T21:06:43;100036.56;;;-1.99;100.00
42761;BME280;31672;47.638;19.026;2022-12-07T21:11:46;100040.19;;;-2.02;100.00
42761;BME280;31672;47.638;19.026;2022-12-07T21:16:49;100044.84;;;-2.07;100.00
42761;BME280;31672;47.638;19.026;2022-12-07T21:21:52;100044.47;;;-2.01;100.00
42761;BME280;31672;47.638;19.026;2022-12-07T21:26:54;100049.50;;;-1.98;100.00
42761;BME280;31672;47.638;19.026;2022-12-07T21:31:57;100041.88;;;-2.01;100.00
42761;BME280;31672;47.638;19.026;2022-12-07T21:37:00;100037.84;;;-2.06;100.00
42761;BME280;31672;47.638;19.026;2022-12-07T21:42:04;100040.81;;;-2.12;100.00
42761;BME280;31672;47.638;19.026;2022-12-07T21:47:07;100043.63;;;-2.16;100.00
42761;BME280;31672;47.638;19.026;2022-12-07T21:52:09;100039.78;;;-2.10;100.00
42761;BME280;31672;47.638;19.026;2022-12-07T21:57:12;100039.47;;;-2.04;100.00
42761;BME280;31672;47.638;19.026;2022-12-07T22:02:15;100030.50;;;-2.00;100.00
42761;BME280;31672;47.638;19.026;2022-12-07T22:07:18;100044.47;;;-2.01;100.00
42761;BME280;31672;47.638;19.026;2022-12-07T22:12:21;100040.94;;;-2.00;100.00
42761;BME280;31672;47.638;19.026;2022-12-07T22:17:24;100046.81;;;-1.96;100.00
42761;BME280;31672;47.638;19.026;2022-12-07T22:22:29;100033.69;;;-1.95;100.00
42761;BME280;31672;47.638;19.026;2022-12-07T22:27:33;100026.59;;;-1.93;100.00
42761;BME280;31672;47.638;19.026;2022-12-07T22:32:37;100034.41;;;-1.93;100.00
42761;BME280;31672;47.638;19.026;2022-12-07T22:37:55;100027.44;;;-1.92;100.00
42761;BME280;31672;47.638;19.026;2022-12-07T22:42:58;100026.69;;;-1.94;100.00
42761;BME280;31672;47.638;19.026;2022-12-07T22:48:01;100027.91;;;-2.00;100.00
42761;BME280;31672;47.638;19.026;2022-12-07T22:53:04;100031.91;;;-2.08;100.00
42761;BME280;31672;47.638;19.026;2022-12-07T22:58:07;100016.66;;;-2.14;100.00
42761;BME280;31672;47.638;19.026;2022-12-07T23:03:10;100016.81;;;-2.18;100.00
42761;BME280;31672;47.638;19.026;2022-12-07T23:08:14;100020.25;;;-2.17;100.00
42761;BME280;31672;47.638;19.026;2022-12-07T23:13:18;100021.22;;;-2.04;100.00
42761;BME280;31672;47.638;19.026;2022-12-07T23:18:39;100027.63;;;-1.95;100.00
42761;BME280;31672;47.638;19.026;2022-12-07T23:23:42;100022.53;;;-1.97;100.00
42761;BME280;31672;47.638;19.026;2022-12-07T23:28:45;100022.13;;;-2.05;100.00
42761;BME280;31672;47.638;19.026;2022-12-07T23:33:48;100027.34;;;-2.19;100.00
42761;BME280;31672;47.638;19.026;2022-12-07T23:38:54;100021.84;;;-2.29;100.00
42761;BME280;31672;47.638;19.026;2022-12-07T23:43:59;100041.34;;;-2.36;100.00
42761;BME280;31672;47.638;19.026;2022-12-07T23:49:04;100032.13;;;-2.42;100.00
42761;BME280;31672;47.638;19.026;2022-12-07T23:54:13;100030.72;;;-2.47;100.00
42761;BME280;31672;47.638;19.026;2022-12-07T23:59:16;100027.72;;;-2.55;100.00
